createdAt,value
2017-04-30T00:00:10.379Z,1011.08
2017-04-30T00:00:51.030Z,1011.07
2017-04-30T00:01:31.684Z,1011.08
2017-04-30T00:02:12.339Z,1011.06
2017-04-30T00:02:52.994Z,1011.08
2017-04-30T00:03:33.641Z,1011.07
2017-04-30T00:04:14.295Z,1011.06
2017-04-30T00:04:54.954Z,1011.01
2017-04-30T00:05:35.603Z,1011.08
2017-04-30T00:06:16.254Z,1011.04
2017-04-30T00:06:56.907Z,1011.05
2017-04-30T00:07:38.587Z,1011.05
2017-04-30T00:08:19.240Z,1011.03
2017-04-30T00:08:59.919Z,1011.05
2017-04-30T00:09:40.545Z,1011.07
2017-04-30T00:10:21.196Z,1011.06
2017-04-30T00:11:01.850Z,1011.05
2017-04-30T00:11:42.529Z,1011.04
2017-04-30T00:12:23.159Z,1011.02
2017-04-30T00:13:04.840Z,1011.06
2017-04-30T00:13:45.486Z,1011.05
2017-04-30T00:14:26.137Z,1011.03
2017-04-30T00:15:07.817Z,1011.03
2017-04-30T00:15:48.404Z,1011.07
2017-04-30T00:16:29.075Z,1011.05
2017-04-30T00:17:09.674Z,1011.05
2017-04-30T00:17:50.326Z,1011.06
2017-04-30T00:18:30.895Z,1011.03
2017-04-30T00:19:11.547Z,1011.01
2017-04-30T00:19:52.248Z,1011.06
2017-04-30T00:20:32.837Z,1011.07
2017-04-30T00:21:13.491Z,1011.05
2017-04-30T00:21:54.143Z,1011.07
2017-04-30T00:22:34.797Z,1011.05
2017-04-30T00:23:15.450Z,1011.08
2017-04-30T00:23:56.102Z,1011.07
2017-04-30T00:24:36.754Z,1011.04
2017-04-30T00:25:18.435Z,1011.04
2017-04-30T00:25:59.009Z,1011.05
2017-04-30T00:26:39.697Z,1011.03
2017-04-30T00:27:20.390Z,1011.03
2017-04-30T00:28:01.045Z,1011.03
2017-04-30T00:28:41.615Z,1011.02
2017-04-30T00:29:22.206Z,1011.04
2017-04-30T00:30:02.837Z,1011.03
2017-04-30T00:30:43.449Z,1011.02
2017-04-30T00:31:25.028Z,1011
2017-04-30T00:32:05.686Z,1010.99
2017-04-30T00:32:46.340Z,1010.98
2017-04-30T00:33:26.994Z,1010.99
2017-04-30T00:34:07.638Z,1010.97
2017-04-30T00:34:48.293Z,1010.97
2017-04-30T00:35:29.013Z,1010.91
2017-04-30T00:36:09.666Z,1010.94
2017-04-30T00:36:50.315Z,1010.96
2017-04-30T00:37:30.972Z,1010.93
2017-04-30T00:38:11.619Z,1010.94
2017-04-30T00:38:52.272Z,1010.93
2017-04-30T00:39:32.925Z,1010.95
2017-04-30T00:40:13.576Z,1010.93
2017-04-30T00:40:54.147Z,1010.94
2017-04-30T00:41:34.836Z,1010.95
2017-04-30T00:42:15.528Z,1010.95
2017-04-30T00:42:56.188Z,1010.92
2017-04-30T00:43:36.755Z,1010.95
2017-04-30T00:44:17.447Z,1010.97
2017-04-30T00:44:58.155Z,1010.94
2017-04-30T00:45:38.837Z,1010.95
2017-04-30T00:46:19.459Z,1010.9
2017-04-30T00:47:00.113Z,1010.94
2017-04-30T00:47:40.769Z,1010.95
2017-04-30T00:48:22.742Z,1010.96
2017-04-30T00:49:03.198Z,1010.94
2017-04-30T00:49:43.848Z,1010.95
2017-04-30T00:50:24.502Z,1010.94
2017-04-30T00:51:05.154Z,1010.92
2017-04-30T00:51:45.807Z,1010.99
2017-04-30T00:52:26.473Z,1010.96
2017-04-30T00:53:07.114Z,1010.99
2017-04-30T00:53:47.767Z,1010.96
2017-04-30T00:54:28.419Z,1010.95
2017-04-30T00:55:09.074Z,1010.95
2017-04-30T00:55:49.726Z,1010.94
2017-04-30T00:56:30.378Z,1010.95
2017-04-30T00:57:11.024Z,1010.94
2017-04-30T00:57:51.682Z,1010.91
2017-04-30T00:58:32.336Z,1010.92
2017-04-30T00:59:12.992Z,1010.91
2017-04-30T00:59:53.647Z,1010.93
2017-04-30T01:00:34.297Z,1010.93
2017-04-30T01:01:14.953Z,1010.9
2017-04-30T01:01:55.600Z,1010.93
2017-04-30T01:02:36.254Z,1010.89
2017-04-30T01:03:17.010Z,1010.91
2017-04-30T01:03:57.671Z,1010.89
2017-04-30T01:04:38.316Z,1010.9
2017-04-30T01:05:18.969Z,1010.94
2017-04-30T01:05:59.530Z,1010.89
2017-04-30T01:06:40.257Z,1010.9
2017-04-30T01:07:21.028Z,1010.89
2017-04-30T01:08:01.688Z,1010.89
2017-04-30T01:08:42.265Z,1010.89
2017-04-30T01:09:22.938Z,1010.9
2017-04-30T01:10:03.641Z,1010.86
2017-04-30T01:10:44.294Z,1010.86
2017-04-30T01:11:24.838Z,1010.86
2017-04-30T01:12:05.507Z,1010.84
2017-04-30T01:12:46.161Z,1010.84
2017-04-30T01:13:26.721Z,1010.83
2017-04-30T01:14:07.356Z,1010.87
2017-04-30T01:14:48.005Z,1010.83
2017-04-30T01:15:28.576Z,1010.84
2017-04-30T01:16:09.318Z,1010.83
2017-04-30T01:16:49.966Z,1010.83
2017-04-30T01:17:30.536Z,1010.8
2017-04-30T01:18:11.238Z,1010.79
2017-04-30T01:18:51.917Z,1010.82
2017-04-30T01:19:32.578Z,1010.82
2017-04-30T01:20:13.146Z,1010.75
2017-04-30T01:20:53.887Z,1010.78
2017-04-30T01:21:34.539Z,1010.81
2017-04-30T01:22:15.196Z,1010.77
2017-04-30T01:22:55.844Z,1010.81
2017-04-30T01:23:36.497Z,1010.8
2017-04-30T01:24:17.153Z,1010.76
2017-04-30T01:24:57.803Z,1010.79
2017-04-30T01:25:38.375Z,1010.82
2017-04-30T01:26:19.060Z,1010.8
2017-04-30T01:26:59.763Z,1010.77
2017-04-30T01:27:40.413Z,1010.79
2017-04-30T01:28:20.985Z,1010.78
2017-04-30T01:29:01.674Z,1010.79
2017-04-30T01:29:42.388Z,1010.77
2017-04-30T01:30:23.130Z,1010.75
2017-04-30T01:31:03.798Z,1010.78
2017-04-30T01:31:44.436Z,1010.78
2017-04-30T01:32:25.086Z,1010.8
2017-04-30T01:33:05.842Z,1010.8
2017-04-30T01:33:46.503Z,1010.78
2017-04-30T01:34:27.152Z,1010.8
2017-04-30T01:35:07.903Z,1010.83
2017-04-30T01:35:48.472Z,1010.81
2017-04-30T01:36:30.186Z,1010.79
2017-04-30T01:37:10.909Z,1010.79
2017-04-30T01:37:51.644Z,1010.76
2017-04-30T01:38:32.229Z,1010.77
2017-04-30T01:39:12.898Z,1010.75
2017-04-30T01:39:53.603Z,1010.78
2017-04-30T01:40:34.259Z,1010.78
2017-04-30T01:41:14.909Z,1010.77
2017-04-30T01:41:55.574Z,1010.74
2017-04-30T01:42:36.218Z,1010.77
2017-04-30T01:43:16.868Z,1010.76
2017-04-30T01:43:57.532Z,1010.74
2017-04-30T01:44:38.181Z,1010.75
2017-04-30T01:45:18.831Z,1010.75
2017-04-30T01:45:59.594Z,1010.73
2017-04-30T01:46:41.261Z,1010.74
2017-04-30T01:47:21.916Z,1010.79
2017-04-30T01:48:02.572Z,1010.75
2017-04-30T01:48:43.219Z,1010.77
2017-04-30T01:49:23.868Z,1010.72
2017-04-30T01:50:04.536Z,1010.76
2017-04-30T01:50:45.111Z,1010.69
2017-04-30T01:51:25.829Z,1010.7
2017-04-30T01:52:06.491Z,1010.72
2017-04-30T01:52:47.031Z,1010.72
2017-04-30T01:53:27.696Z,1010.74
2017-04-30T01:54:08.340Z,1010.73
2017-04-30T01:54:48.911Z,1010.71
2017-04-30T01:55:29.542Z,1010.73
2017-04-30T01:56:10.202Z,1010.74
2017-04-30T01:56:50.756Z,1010.74
2017-04-30T01:57:31.478Z,1010.73
2017-04-30T01:58:12.151Z,1010.73
2017-04-30T01:58:52.817Z,1010.74
2017-04-30T01:59:33.396Z,1010.72
2017-04-30T02:00:14.078Z,1010.74
2017-04-30T02:00:54.763Z,1010.72
2017-04-30T02:01:36.445Z,1010.71
2017-04-30T02:02:17.018Z,1010.74
2017-04-30T02:02:57.715Z,1010.73
2017-04-30T02:03:38.401Z,1010.69
2017-04-30T02:04:19.052Z,1010.75
2017-04-30T02:04:59.621Z,1010.7
2017-04-30T02:05:40.314Z,1010.67
2017-04-30T02:06:21.013Z,1010.65
2017-04-30T02:07:01.667Z,1010.71
2017-04-30T02:07:42.319Z,1010.65
2017-04-30T02:08:23.008Z,1010.66
2017-04-30T02:09:03.614Z,1010.64
2017-04-30T02:09:44.270Z,1010.67
2017-04-30T02:10:24.921Z,1010.63
2017-04-30T02:11:05.588Z,1010.65
2017-04-30T02:11:46.156Z,1010.62
2017-04-30T02:12:26.832Z,1010.63
2017-04-30T02:13:07.544Z,1010.61
2017-04-30T02:13:48.202Z,1010.64
2017-04-30T02:14:28.777Z,1010.62
2017-04-30T02:15:09.461Z,1010.61
2017-04-30T02:15:50.153Z,1010.58
2017-04-30T02:16:30.813Z,1010.58
2017-04-30T02:17:11.466Z,1010.57
2017-04-30T02:17:52.118Z,1010.55
2017-04-30T02:18:32.771Z,1010.56
2017-04-30T02:19:13.423Z,1010.55
2017-04-30T02:19:54.078Z,1010.57
2017-04-30T02:20:35.317Z,1010.59
2017-04-30T02:21:15.969Z,1010.56
2017-04-30T02:21:56.623Z,1010.57
2017-04-30T02:22:38.303Z,1010.58
2017-04-30T02:23:18.943Z,1010.53
2017-04-30T02:23:59.608Z,1010.53
2017-04-30T02:24:40.253Z,1010.55
2017-04-30T02:25:20.907Z,1010.57
2017-04-30T02:26:01.555Z,1010.57
2017-04-30T02:26:42.116Z,1010.57
2017-04-30T02:27:22.753Z,1010.55
2017-04-30T02:28:03.414Z,1010.54
2017-04-30T02:28:43.975Z,1010.56
2017-04-30T02:29:24.626Z,1010.58
2017-04-30T02:30:05.269Z,1010.57
2017-04-30T02:30:45.830Z,1010.58
2017-04-30T02:31:26.480Z,1010.53
2017-04-30T02:32:07.126Z,1010.6
2017-04-30T02:32:48.471Z,1010.55
2017-04-30T02:33:29.155Z,1010.59
2017-04-30T02:34:09.796Z,1010.57
2017-04-30T02:34:50.450Z,1010.6
2017-04-30T02:35:31.128Z,1010.56
2017-04-30T02:36:11.761Z,1010.58
2017-04-30T02:36:52.420Z,1010.56
2017-04-30T02:37:33.058Z,1010.55
2017-04-30T02:38:13.722Z,1010.51
2017-04-30T02:38:54.302Z,1010.56
2017-04-30T02:39:34.914Z,1010.53
2017-04-30T02:40:15.581Z,1010.5
2017-04-30T02:40:56.182Z,1010.54
2017-04-30T02:41:36.871Z,1010.5
2017-04-30T02:42:17.539Z,1010.51
2017-04-30T02:42:58.184Z,1010.48
2017-04-30T02:43:38.840Z,1010.53
2017-04-30T02:44:19.501Z,1010.52
2017-04-30T02:45:00.156Z,1010.5
2017-04-30T02:45:40.795Z,1010.49
2017-04-30T02:46:21.458Z,1010.49
2017-04-30T02:47:02.139Z,1010.47
2017-04-30T02:47:42.767Z,1010.52
2017-04-30T02:48:23.420Z,1010.46
2017-04-30T02:49:04.078Z,1010.47
2017-04-30T02:49:44.721Z,1010.45
2017-04-30T02:50:25.373Z,1010.44
2017-04-30T02:51:06.030Z,1010.5
2017-04-30T02:51:46.715Z,1010.45
2017-04-30T02:52:27.326Z,1010.45
2017-04-30T02:53:08.012Z,1010.44
2017-04-30T02:53:49.457Z,1010.39
2017-04-30T02:54:30.110Z,1010.41
2017-04-30T02:55:10.767Z,1010.4
2017-04-30T02:55:51.429Z,1010.45
2017-04-30T02:56:32.174Z,1010.42
2017-04-30T02:57:12.819Z,1010.41
2017-04-30T02:57:53.489Z,1010.48
2017-04-30T02:58:34.130Z,1010.44
2017-04-30T02:59:14.781Z,1010.41
2017-04-30T02:59:55.434Z,1010.42
2017-04-30T03:00:36.088Z,1010.46
2017-04-30T03:01:16.737Z,1010.44
2017-04-30T03:01:58.411Z,1010.44
2017-04-30T03:02:39.173Z,1010.44
2017-04-30T03:03:19.821Z,1010.41
2017-04-30T03:04:00.477Z,1010.4
2017-04-30T03:04:41.131Z,1010.4
2017-04-30T03:05:21.788Z,1010.39
2017-04-30T03:06:02.437Z,1010.4
2017-04-30T03:06:43.089Z,1010.37
2017-04-30T03:07:23.741Z,1010.4
2017-04-30T03:08:04.394Z,1010.37
2017-04-30T03:08:45.075Z,1010.37
2017-04-30T03:09:25.699Z,1010.39
2017-04-30T03:10:06.354Z,1010.38
2017-04-30T03:10:47.008Z,1010.37
2017-04-30T03:11:27.661Z,1010.39
2017-04-30T03:12:08.211Z,1010.42
2017-04-30T03:12:48.934Z,1010.37
2017-04-30T03:13:29.625Z,1010.36
2017-04-30T03:14:10.273Z,1010.4
2017-04-30T03:14:50.849Z,1010.41
2017-04-30T03:15:31.556Z,1010.37
2017-04-30T03:16:12.228Z,1010.35
2017-04-30T03:16:52.894Z,1010.35
2017-04-30T03:17:33.535Z,1010.36
2017-04-30T03:18:14.200Z,1010.35
2017-04-30T03:18:54.848Z,1010.36
2017-04-30T03:19:35.505Z,1010.36
2017-04-30T03:20:16.147Z,1010.38
2017-04-30T03:20:56.802Z,1010.36
2017-04-30T03:21:37.465Z,1010.36
2017-04-30T03:22:18.029Z,1010.37
2017-04-30T03:22:58.609Z,1010.38
2017-04-30T03:23:39.311Z,1010.37
2017-04-30T03:24:19.967Z,1010.34
2017-04-30T03:25:00.548Z,1010.33
2017-04-30T03:25:41.241Z,1010.36
2017-04-30T03:26:21.933Z,1010.37
2017-04-30T03:27:02.578Z,1010.35
2017-04-30T03:27:43.149Z,1010.35
2017-04-30T03:28:23.836Z,1010.31
2017-04-30T03:29:04.533Z,1010.35
2017-04-30T03:29:45.195Z,1010.34
2017-04-30T03:30:25.749Z,1010.3
2017-04-30T03:31:06.452Z,1010.29
2017-04-30T03:31:48.192Z,1010.31
2017-04-30T03:32:28.936Z,1010.28
2017-04-30T03:33:09.496Z,1010.27
2017-04-30T03:33:50.203Z,1010.3
2017-04-30T03:34:30.892Z,1010.27
2017-04-30T03:35:11.542Z,1010.28
2017-04-30T03:35:52.115Z,1010.25
2017-04-30T03:36:34.900Z,1010.26
2017-04-30T03:37:15.556Z,1010.23
2017-04-30T03:37:56.194Z,1010.23
2017-04-30T03:38:36.853Z,1010.24
2017-04-30T03:39:17.507Z,1010.29
2017-04-30T03:39:58.164Z,1010.24
2017-04-30T03:40:38.809Z,1010.25
2017-04-30T03:41:19.463Z,1010.24
2017-04-30T03:42:00.123Z,1010.25
2017-04-30T03:42:40.765Z,1010.21
2017-04-30T03:43:21.431Z,1010.23
2017-04-30T03:44:02.079Z,1010.22
2017-04-30T03:44:42.726Z,1010.19
2017-04-30T03:45:24.200Z,1010.2
2017-04-30T03:46:04.761Z,1010.16
2017-04-30T03:46:45.465Z,1010.14
2017-04-30T03:47:26.157Z,1010.18
2017-04-30T03:48:06.813Z,1010.17
2017-04-30T03:48:47.385Z,1010.14
2017-04-30T03:49:28.074Z,1010.18
2017-04-30T03:50:08.772Z,1010.17
2017-04-30T03:50:49.426Z,1010.12
2017-04-30T03:51:30.020Z,1010.14
2017-04-30T03:52:10.693Z,1010.16
2017-04-30T03:52:51.375Z,1010.21
2017-04-30T03:53:32.041Z,1010.19
2017-04-30T03:54:12.589Z,1010.2
2017-04-30T03:54:55.242Z,1010.16
2017-04-30T03:55:35.937Z,1010.18
2017-04-30T03:56:16.599Z,1010.16
2017-04-30T03:56:58.295Z,1010.19
2017-04-30T03:57:38.927Z,1010.18
2017-04-30T03:58:21.631Z,1010.16
2017-04-30T03:59:02.297Z,1010.15
2017-04-30T03:59:42.930Z,1010.12
2017-04-30T04:00:25.636Z,1010.15
2017-04-30T04:01:06.285Z,1010.16
2017-04-30T04:01:47.962Z,1010.11
2017-04-30T04:02:28.615Z,1010.1
2017-04-30T04:03:09.272Z,1010.14
2017-04-30T04:03:49.922Z,1010.08
2017-04-30T04:04:30.602Z,1010.12
2017-04-30T04:05:11.324Z,1010.1
2017-04-30T04:05:54.023Z,1010.13
2017-04-30T04:06:34.672Z,1010.11
2017-04-30T04:07:16.347Z,1010.14
2017-04-30T04:07:57.007Z,1010.13
2017-04-30T04:08:37.654Z,1010.14
2017-04-30T04:09:18.314Z,1010.1
2017-04-30T04:09:58.963Z,1010.14
2017-04-30T04:10:39.629Z,1010.18
2017-04-30T04:11:20.267Z,1010.17
2017-04-30T04:12:02.966Z,1010.17
2017-04-30T04:12:43.625Z,1010.14
2017-04-30T04:13:24.280Z,1010.14
2017-04-30T04:14:04.929Z,1010.17
2017-04-30T04:14:45.578Z,1010.18
2017-04-30T04:15:26.237Z,1010.18
2017-04-30T04:16:06.853Z,1010.2
2017-04-30T04:16:47.536Z,1010.19
2017-04-30T04:17:28.191Z,1010.2
2017-04-30T04:18:08.779Z,1010.24
2017-04-30T04:18:50.425Z,1010.18
2017-04-30T04:19:31.074Z,1010.21
2017-04-30T04:20:11.641Z,1010.18
2017-04-30T04:20:52.281Z,1010.22
2017-04-30T04:21:32.921Z,1010.2
2017-04-30T04:22:13.591Z,1010.19
2017-04-30T04:22:54.244Z,1010.17
2017-04-30T04:23:34.889Z,1010.17
2017-04-30T04:24:15.558Z,1010.17
2017-04-30T04:24:56.206Z,1010.15
2017-04-30T04:25:36.858Z,1010.17
2017-04-30T04:26:17.503Z,1010.19
2017-04-30T04:26:58.068Z,1010.18
2017-04-30T04:27:38.750Z,1010.17
2017-04-30T04:28:19.461Z,1010.17
2017-04-30T04:29:00.118Z,1010.12
2017-04-30T04:29:40.673Z,1010.15
2017-04-30T04:30:21.368Z,1010.15
2017-04-30T04:31:02.072Z,1010.12
2017-04-30T04:31:42.721Z,1010.12
2017-04-30T04:32:23.383Z,1010.09
2017-04-30T04:33:04.034Z,1010.11
2017-04-30T04:33:44.686Z,1010.1
2017-04-30T04:34:25.344Z,1010.07
2017-04-30T04:35:05.987Z,1010.08
2017-04-30T04:35:46.645Z,1010.1
2017-04-30T04:36:27.302Z,1010.07
2017-04-30T04:37:07.946Z,1010.07
2017-04-30T04:37:48.609Z,1010.11
2017-04-30T04:38:29.254Z,1010.08
2017-04-30T04:39:09.912Z,1010.05
2017-04-30T04:39:50.565Z,1010.04
2017-04-30T04:40:31.217Z,1010.04
2017-04-30T04:41:11.870Z,1010.01
2017-04-30T04:41:52.525Z,1010.01
2017-04-30T04:42:33.174Z,1009.98
2017-04-30T04:43:13.831Z,1010.04
2017-04-30T04:43:54.492Z,1009.99
2017-04-30T04:44:35.235Z,1010
2017-04-30T04:45:15.891Z,1009.98
2017-04-30T04:45:56.541Z,1009.97
2017-04-30T04:46:37.202Z,1009.97
2017-04-30T04:47:17.846Z,1009.98
2017-04-30T04:47:58.501Z,1010.01
2017-04-30T04:48:39.152Z,1009.98
2017-04-30T04:49:19.807Z,1010
2017-04-30T04:50:00.463Z,1009.99
2017-04-30T04:50:41.123Z,1009.99
2017-04-30T04:51:21.768Z,1010.02
2017-04-30T04:52:02.419Z,1009.98
2017-04-30T04:52:43.074Z,1009.98
2017-04-30T04:53:23.725Z,1009.95
2017-04-30T04:54:04.379Z,1009.96
2017-04-30T04:54:45.031Z,1009.95
2017-04-30T04:55:25.685Z,1009.92
2017-04-30T04:56:06.246Z,1009.91
2017-04-30T04:56:46.941Z,1009.93
2017-04-30T04:57:27.685Z,1009.93
2017-04-30T04:58:08.398Z,1009.91
2017-04-30T04:58:48.965Z,1009.89
2017-04-30T04:59:29.659Z,1009.93
2017-04-30T05:00:10.370Z,1009.89
2017-04-30T05:00:51.007Z,1009.92
2017-04-30T05:01:31.596Z,1009.93
2017-04-30T05:02:12.271Z,1009.9
2017-04-30T05:02:52.975Z,1009.91
2017-04-30T05:03:33.628Z,1009.95
2017-04-30T05:04:14.201Z,1009.9
2017-04-30T05:04:54.882Z,1009.9
2017-04-30T05:05:35.570Z,1009.89
2017-04-30T05:06:16.240Z,1009.92
2017-04-30T05:06:56.790Z,1009.93
2017-04-30T05:07:37.424Z,1009.89
2017-04-30T05:08:18.109Z,1009.92
2017-04-30T05:08:58.661Z,1009.85
2017-04-30T05:09:39.296Z,1009.86
2017-04-30T05:10:19.946Z,1009.84
2017-04-30T05:11:00.518Z,1009.85
2017-04-30T05:11:41.252Z,1009.87
2017-04-30T05:12:21.909Z,1009.8
2017-04-30T05:13:02.549Z,1009.81
2017-04-30T05:13:43.215Z,1009.83
2017-04-30T05:14:23.855Z,1009.79
2017-04-30T05:15:04.520Z,1009.84
2017-04-30T05:15:45.167Z,1009.85
2017-04-30T05:16:25.826Z,1009.86
2017-04-30T05:17:06.478Z,1009.84
2017-04-30T05:17:47.126Z,1009.86
2017-04-30T05:18:27.785Z,1009.83
2017-04-30T05:19:08.473Z,1009.82
2017-04-30T05:19:49.093Z,1009.8
2017-04-30T05:20:29.752Z,1009.83
2017-04-30T05:21:10.297Z,1009.8
2017-04-30T05:21:50.937Z,1009.81
2017-04-30T05:22:31.599Z,1009.8
2017-04-30T05:23:12.173Z,1009.82
2017-04-30T05:23:52.928Z,1009.79
2017-04-30T05:24:33.663Z,1009.8
2017-04-30T05:25:14.229Z,1009.78
2017-04-30T05:25:54.814Z,1009.81
2017-04-30T05:26:35.365Z,1009.82
2017-04-30T05:27:15.922Z,1009.81
2017-04-30T05:27:56.489Z,1009.83
2017-04-30T05:28:37.158Z,1009.8
2017-04-30T05:29:17.823Z,1009.85
2017-04-30T05:29:58.426Z,1009.81
2017-04-30T05:30:39.126Z,1009.85
2017-04-30T05:31:19.780Z,1009.79
2017-04-30T05:32:00.432Z,1009.83
2017-04-30T05:32:41.006Z,1009.81
2017-04-30T05:33:21.712Z,1009.78
2017-04-30T05:34:02.344Z,1009.84
2017-04-30T05:34:43.071Z,1009.81
2017-04-30T05:35:23.757Z,1009.77
2017-04-30T05:36:04.407Z,1009.84
2017-04-30T05:36:45.103Z,1009.84
2017-04-30T05:37:25.758Z,1009.84
2017-04-30T05:38:06.333Z,1009.83
2017-04-30T05:38:48.041Z,1009.86
2017-04-30T05:39:28.789Z,1009.84
2017-04-30T05:40:09.514Z,1009.86
2017-04-30T05:40:50.082Z,1009.88
2017-04-30T05:41:30.795Z,1009.84
2017-04-30T05:42:11.515Z,1009.83
2017-04-30T05:42:52.183Z,1009.83
2017-04-30T05:43:32.948Z,1009.83
2017-04-30T05:44:13.705Z,1009.82
2017-04-30T05:44:54.429Z,1009.83
2017-04-30T05:45:35.083Z,1009.84
2017-04-30T05:46:15.738Z,1009.83
2017-04-30T05:46:56.440Z,1009.85
2017-04-30T05:47:37.031Z,1009.84
2017-04-30T05:48:17.736Z,1009.84
2017-04-30T05:48:58.396Z,1009.84
2017-04-30T05:49:38.950Z,1009.85
2017-04-30T05:50:19.599Z,1009.89
2017-04-30T05:51:00.354Z,1009.83
2017-04-30T05:51:40.930Z,1009.84
2017-04-30T05:52:21.611Z,1009.85
2017-04-30T05:53:02.317Z,1009.82
2017-04-30T05:53:42.971Z,1009.83
2017-04-30T05:54:23.552Z,1009.79
2017-04-30T05:55:04.222Z,1009.81
2017-04-30T05:55:44.987Z,1009.83
2017-04-30T05:56:25.684Z,1009.79
2017-04-30T05:57:06.336Z,1009.79
2017-04-30T05:57:46.989Z,1009.8
2017-04-30T05:58:27.642Z,1009.77
2017-04-30T05:59:08.401Z,1009.79
2017-04-30T05:59:49.051Z,1009.74
2017-04-30T06:00:29.704Z,1009.76
2017-04-30T06:01:10.358Z,1009.77
2017-04-30T06:01:51.010Z,1009.77
2017-04-30T06:02:31.767Z,1009.75
2017-04-30T06:03:12.434Z,1009.75
2017-04-30T06:03:53.172Z,1009.75
2017-04-30T06:04:33.845Z,1009.77
2017-04-30T06:05:14.481Z,1009.77
2017-04-30T06:05:55.333Z,1009.73
2017-04-30T06:06:35.992Z,1009.69
2017-04-30T06:07:16.642Z,1009.7
2017-04-30T06:07:57.299Z,1009.73
2017-04-30T06:08:38.052Z,1009.72
2017-04-30T06:09:18.914Z,1009.69
2017-04-30T06:09:59.561Z,1009.69
2017-04-30T06:10:40.213Z,1009.7
2017-04-30T06:11:20.867Z,1009.66
2017-04-30T06:12:01.520Z,1009.64
2017-04-30T06:12:42.284Z,1009.69
2017-04-30T06:13:23.037Z,1009.68
2017-04-30T06:14:03.789Z,1009.64
2017-04-30T06:14:44.572Z,1009.64
2017-04-30T06:15:25.296Z,1009.67
2017-04-30T06:16:05.895Z,1009.61
2017-04-30T06:16:46.605Z,1009.6
2017-04-30T06:17:27.259Z,1009.64
2017-04-30T06:18:08.009Z,1009.6
2017-04-30T06:18:48.666Z,1009.59
2017-04-30T06:19:29.419Z,1009.6
2017-04-30T06:20:10.194Z,1009.59
2017-04-30T06:20:50.930Z,1009.6
2017-04-30T06:21:31.516Z,1009.61
2017-04-30T06:22:12.174Z,1009.53
2017-04-30T06:22:52.931Z,1009.56
2017-04-30T06:23:33.640Z,1009.53
2017-04-30T06:24:14.205Z,1009.53
2017-04-30T06:24:54.923Z,1009.54
2017-04-30T06:25:35.691Z,1009.52
2017-04-30T06:26:16.357Z,1009.53
2017-04-30T06:26:56.941Z,1009.53
2017-04-30T07:06:43.865Z,1009.22
2017-04-30T07:07:24.540Z,1009.21
2017-04-30T07:08:05.173Z,1009.17
2017-04-30T07:08:45.933Z,1009.21
2017-04-30T07:09:26.683Z,1009.18
2017-04-30T07:10:07.435Z,1009.21
2017-04-30T07:10:48.205Z,1009.18
2017-04-30T07:11:28.949Z,1009.22
2017-04-30T07:12:09.603Z,1009.21
2017-04-30T07:12:50.258Z,1009.19
2017-04-30T07:13:30.827Z,1009.21
2017-04-30T07:14:11.564Z,1009.21
2017-04-30T07:14:52.327Z,1009.22
2017-04-30T07:15:33.075Z,1009.19
2017-04-30T07:16:13.830Z,1009.22
2017-04-30T07:16:54.582Z,1009.22
2017-04-30T07:17:36.256Z,1009.15
2017-04-30T07:18:16.916Z,1009.16
2017-04-30T07:18:57.665Z,1009.15
2017-04-30T07:19:38.427Z,1009.15
2017-04-30T07:20:20.099Z,1009.16
2017-04-30T07:21:00.746Z,1009.15
2017-04-30T07:21:41.405Z,1009.17
2017-04-30T07:22:21.966Z,1009.15
2017-04-30T07:23:02.658Z,1009.14
2017-04-30T07:23:45.411Z,1009.1
2017-04-30T07:24:26.066Z,1009.08
2017-04-30T07:25:06.628Z,1009.12
2017-04-30T07:25:48.360Z,1009.1
2017-04-30T07:26:29.057Z,1009.12
2017-04-30T07:27:10.867Z,1009.1
2017-04-30T07:27:53.529Z,1009.05
2017-04-30T07:28:35.216Z,1009.05
2017-04-30T07:29:17.910Z,1009.09
2017-04-30T07:29:58.665Z,1009.06
2017-04-30T07:30:39.423Z,1009.06
2017-04-30T07:31:20.069Z,1009.07
2017-04-30T07:32:00.726Z,1009.04
2017-04-30T07:32:41.483Z,1009.09
2017-04-30T07:33:22.239Z,1009.02
2017-04-30T07:34:02.991Z,1009.03
2017-04-30T07:34:44.779Z,1009.01
2017-04-30T07:35:25.527Z,1008.99
2017-04-30T07:36:06.283Z,1009.02
2017-04-30T07:36:46.933Z,1009.01
2017-04-30T07:37:28.613Z,1008.98
2017-04-30T07:38:09.367Z,1008.99
2017-04-30T07:38:50.122Z,1008.92
2017-04-30T07:39:30.878Z,1008.96
2017-04-30T07:40:11.650Z,1008.99
2017-04-30T07:40:53.325Z,1009.01
2017-04-30T07:41:34.065Z,1008.97
2017-04-30T07:42:15.743Z,1008.97
2017-04-30T07:42:56.499Z,1008.98
2017-04-30T07:43:37.770Z,1008.97
2017-04-30T07:44:18.518Z,1008.92
2017-04-30T07:44:59.276Z,1008.93
2017-04-30T07:45:40.045Z,1008.97
2017-04-30T07:46:20.805Z,1008.94
2017-04-30T07:47:01.542Z,1008.93
2017-04-30T07:47:42.296Z,1008.92
2017-04-30T07:48:23.052Z,1008.9
2017-04-30T07:49:03.810Z,1008.96
2017-04-30T07:49:44.564Z,1008.99
2017-04-30T07:50:26.240Z,1008.91
2017-04-30T07:51:06.994Z,1008.94
2017-04-30T07:51:47.748Z,1008.94
2017-04-30T07:52:33.113Z,1008.93
2017-04-30T07:53:13.864Z,1008.92
2017-04-30T07:53:55.556Z,1008.88
2017-04-30T07:54:36.302Z,1008.91
2017-04-30T07:55:17.064Z,1008.85
2017-04-30T07:56:02.628Z,1008.91
2017-04-30T07:56:43.194Z,1008.88
2017-04-30T07:57:23.922Z,1008.86
2017-04-30T07:58:04.476Z,1008.88
2017-04-30T07:58:46.160Z,1008.86
2017-04-30T07:59:26.735Z,1008.81
2017-04-30T08:00:07.416Z,1008.84
2017-04-30T08:00:48.644Z,1008.83
2017-04-30T08:01:30.413Z,1008.79
2017-04-30T08:02:12.084Z,1008.84
2017-04-30T08:02:52.845Z,1008.75
2017-04-30T08:03:33.594Z,1008.77
2017-04-30T08:04:14.354Z,1008.76
2017-04-30T08:04:55.110Z,1008.83
2017-04-30T08:05:36.890Z,1008.75
2017-04-30T08:06:17.451Z,1008.82
2017-04-30T08:06:59.214Z,1008.75
2017-04-30T08:07:39.831Z,1008.81
2017-04-30T08:08:20.594Z,1008.73
2017-04-30T08:09:02.294Z,1008.74
2017-04-30T08:09:42.864Z,1008.72
2017-04-30T08:10:24.630Z,1008.79
2017-04-30T08:11:05.192Z,1008.72
2017-04-30T08:11:45.919Z,1008.74
2017-04-30T08:12:26.597Z,1008.74
2017-04-30T08:13:07.359Z,1008.71
2017-04-30T08:13:47.941Z,1008.78
2017-04-30T08:14:28.733Z,1008.72
2017-04-30T08:15:09.408Z,1008.75
2017-04-30T08:15:50.176Z,1008.68
2017-04-30T08:16:30.736Z,1008.66
2017-04-30T08:17:11.478Z,1008.63
2017-04-30T08:17:52.232Z,1008.59
2017-04-30T08:18:32.793Z,1008.58
2017-04-30T08:19:13.541Z,1008.58
2017-04-30T08:19:54.301Z,1008.57
2017-04-30T08:20:34.882Z,1008.58
2017-04-30T08:21:17.544Z,1008.54
2017-04-30T08:21:58.203Z,1008.55
2017-04-30T08:22:38.790Z,1008.56
2017-04-30T08:23:19.584Z,1008.56
2017-04-30T08:24:00.372Z,1008.54
2017-04-30T08:24:41.122Z,1008.53
2017-04-30T08:25:21.693Z,1008.54
2017-04-30T08:26:02.380Z,1008.5
2017-04-30T08:26:43.116Z,1008.46
2017-04-30T08:27:23.844Z,1008.47
2017-04-30T08:28:04.592Z,1008.43
2017-04-30T08:28:45.359Z,1008.5
2017-04-30T08:29:26.108Z,1008.5
2017-04-30T08:30:06.862Z,1008.48
2017-04-30T08:30:47.626Z,1008.5
2017-04-30T08:31:29.427Z,1008.43
2017-04-30T08:32:10.142Z,1008.39
2017-04-30T08:32:51.006Z,1008.47
2017-04-30T08:33:31.762Z,1008.37
2017-04-30T08:34:12.513Z,1008.42
2017-04-30T08:34:53.269Z,1008.35
2017-04-30T08:35:34.024Z,1008.38
2017-04-30T08:36:14.779Z,1008.34
2017-04-30T08:36:55.341Z,1008.46
2017-04-30T08:37:36.047Z,1008.41
2017-04-30T08:38:16.739Z,1008.38
2017-04-30T08:38:57.497Z,1008.39
2017-04-30T08:39:38.057Z,1008.36
2017-04-30T08:40:18.778Z,1008.32
2017-04-30T08:40:59.559Z,1008.42
2017-04-30T08:41:40.425Z,1008.3
2017-04-30T08:42:21.171Z,1008.33
2017-04-30T08:43:01.926Z,1008.27
2017-04-30T08:43:42.677Z,1008.27
2017-04-30T08:44:23.444Z,1008.31
2017-04-30T08:45:04.189Z,1008.31
2017-04-30T08:45:44.950Z,1008.35
2017-04-30T08:46:25.713Z,1008.39
2017-04-30T08:47:06.289Z,1008.37
2017-04-30T08:47:47.039Z,1008.3
2017-04-30T08:48:27.600Z,1008.25
2017-04-30T08:49:08.143Z,1008.23
2017-04-30T08:49:48.692Z,1008.22
2017-04-30T08:50:29.256Z,1008.24
2017-04-30T08:51:09.973Z,1008.18
2017-04-30T08:51:50.525Z,1008.25
2017-04-30T08:52:32.200Z,1008.33
2017-04-30T08:53:12.852Z,1008.19